createdAt,value
2023-04-01T00:02:06.130Z,97610.59
2023-04-01T00:04:33.816Z,97598.50
2023-04-01T00:07:02.572Z,97600.06
2023-04-01T00:09:30.567Z,97601.38
2023-04-01T00:11:58.075Z,97593.63
2023-04-01T00:14:26.924Z,97591.97
2023-04-01T00:16:54.609Z,97595.47
2023-04-01T00:19:22.172Z,97590.66
2023-04-01T00:21:49.863Z,97584.91
2023-04-01T00:24:17.378Z,97591.25
2023-04-01T00:26:45.497Z,97598.72
2023-04-01T00:29:12.984Z,97592.94
2023-04-01T00:31:41.900Z,97594.97
2023-04-01T00:34:09.568Z,97590.16
2023-04-01T00:36:37.078Z,97587.44
2023-04-01T00:39:04.645Z,97587.69
2023-04-01T00:41:32.143Z,97591.19
2023-04-01T00:44:18.988Z,97588.53
2023-04-01T00:46:48.603Z,97592.44
2023-04-01T00:49:18.540Z,97581.84
2023-04-01T00:51:49.732Z,97580.31
2023-04-01T00:54:19.550Z,97577.66
2023-04-01T00:56:50.743Z,97578.66
2023-04-01T00:59:22.906Z,97575.50
2023-04-01T01:01:52.058Z,97579.78
2023-04-01T01:04:25.206Z,97574.56
2023-04-01T01:06:59.439Z,97586.06
2023-04-01T01:09:42.750Z,97581.63
2023-04-01T01:12:15.516Z,97581.91
2023-04-01T01:15:08.381Z,97581.41
2023-04-01T01:17:49.830Z,97579.91
2023-04-01T01:20:49.886Z,97578.19
2023-04-01T01:23:46.580Z,97581.78
2023-04-01T01:26:40.354Z,97563.53
2023-04-01T01:29:19.885Z,97568.63
2023-04-01T01:31:58.631Z,97567.88
2023-04-01T01:34:38.204Z,97562.19
2023-04-01T01:37:12.228Z,97552.97
2023-04-01T01:39:43.426Z,97561.31
2023-04-01T01:42:13.819Z,97561.91
2023-04-01T01:44:44.883Z,97561.53
2023-04-01T01:47:13.604Z,97556.88
2023-04-01T01:49:43.239Z,97554.91
2023-04-01T01:52:12.607Z,97568.09
2023-04-01T01:54:49.492Z,97562.94
2023-04-01T01:57:19.087Z,97556.78
2023-04-01T01:59:47.882Z,97559.75
2023-04-01T02:02:17.031Z,97566.31
2023-04-01T02:04:47.243Z,97571.13
2023-04-01T02:07:21.865Z,97567.63
2023-04-01T02:09:51.391Z,97560.38
2023-04-01T02:12:21.265Z,97570.69
2023-04-01T02:14:54.284Z,97566.72
2023-04-01T02:17:23.195Z,97571.50
2023-04-01T02:19:55.518Z,97565.72
2023-04-01T02:22:28.075Z,97570.47
2023-04-01T02:24:59.408Z,97569.28
2023-04-01T02:27:27.349Z,97559.13
2023-04-01T02:29:55.140Z,97561.88
2023-04-01T02:32:23.036Z,97554.28
2023-04-01T02:34:51.347Z,97563.81
2023-04-01T02:37:19.685Z,97552.81
2023-04-01T02:39:48.510Z,97553.06
2023-04-01T02:42:16.501Z,97554.88
2023-04-01T02:44:43.967Z,97555.56
2023-04-01T02:47:11.459Z,97548.38
2023-04-01T02:49:38.976Z,97554.56
2023-04-01T02:52:06.664Z,97550.91
2023-04-01T02:54:40.378Z,97557.91
2023-04-01T02:57:09.266Z,97562.03
2023-04-01T02:59:36.716Z,97555.50
2023-04-01T03:02:04.241Z,97548.50
2023-04-01T03:04:31.725Z,97557.22
2023-04-01T03:06:59.343Z,97557.91
2023-04-01T03:09:26.880Z,97574.34
2023-04-01T03:11:54.337Z,97564.00
2023-04-01T03:14:23.223Z,97581.66
2023-04-01T03:16:50.782Z,97569.78
2023-04-01T03:19:18.263Z,97568.69
2023-04-01T03:21:45.738Z,97564.78
2023-04-01T03:24:13.186Z,97566.75
2023-04-01T03:26:40.621Z,97564.34
2023-04-01T03:29:08.060Z,97574.59
2023-04-01T03:31:36.819Z,97560.72
2023-04-01T03:34:04.264Z,97562.53
2023-04-01T03:36:31.752Z,97576.31
2023-04-01T03:38:59.253Z,97578.50
2023-04-01T03:41:27.334Z,97577.34
2023-04-01T03:43:55.861Z,97582.41
2023-04-01T03:46:23.389Z,97578.91
2023-04-01T03:48:52.291Z,97578.81
2023-04-01T03:51:19.748Z,97582.41
2023-04-01T03:53:47.170Z,97590.72
2023-04-01T03:56:14.652Z,97587.72
2023-04-01T03:58:42.075Z,97591.56
2023-04-01T04:01:17.721Z,97595.31
2023-04-01T04:03:46.836Z,97597.84
2023-04-01T04:06:16.275Z,97586.06
2023-04-01T04:08:44.106Z,97601.72
2023-04-01T04:11:11.854Z,97602.94
2023-04-01T04:13:39.325Z,97600.16
2023-04-01T04:16:07.355Z,97594.69
2023-04-01T04:18:35.521Z,97603.75
2023-04-01T04:21:03.239Z,97607.94
2023-04-01T04:23:34.366Z,97601.94
2023-04-01T04:26:03.611Z,97610.66
2023-04-01T04:28:31.189Z,97612.34
2023-04-01T04:30:59.071Z,97612.94
2023-04-01T04:33:27.338Z,97613.88
2023-04-01T04:35:58.120Z,97609.03
2023-04-01T04:38:26.113Z,97611.25
2023-04-01T04:40:55.287Z,97609.66
2023-04-01T04:43:22.899Z,97617.75
2023-04-01T04:45:50.490Z,97615.47
2023-04-01T04:48:21.067Z,97611.97
2023-04-01T04:50:50.148Z,97618.41
2023-04-01T04:53:19.149Z,97617.31
2023-04-01T04:55:47.039Z,97619.97
2023-04-01T04:58:16.137Z,97620.78
2023-04-01T05:00:44.355Z,97623.59
2023-04-01T05:03:12.887Z,97629.25
2023-04-01T05:05:41.493Z,97626.81
2023-04-01T05:08:08.991Z,97628.97
2023-04-01T05:10:36.784Z,97630.91
2023-04-01T05:13:04.259Z,97637.41
2023-04-01T05:15:33.327Z,97630.66
2023-04-01T05:18:01.085Z,97639.16
2023-04-01T05:20:28.705Z,97636.72
2023-04-01T05:22:58.128Z,97636.16
2023-04-01T05:25:25.875Z,97641.94
2023-04-01T05:27:53.355Z,97636.47
2023-04-01T05:30:21.023Z,97635.66
2023-04-01T05:32:49.899Z,97635.50
2023-04-01T05:35:17.558Z,97631.88
2023-04-01T05:37:45.229Z,97638.50
2023-04-01T05:40:13.034Z,97642.59
2023-04-01T05:42:40.710Z,97643.41
2023-04-01T05:45:09.879Z,97649.84
2023-04-01T05:47:37.480Z,97654.63
2023-04-01T05:50:07.040Z,97644.44
2023-04-01T05:52:34.518Z,97652.50
2023-04-01T05:55:02.013Z,97649.47
2023-04-01T05:57:29.513Z,97653.09
2023-04-01T05:59:57.062Z,97650.88
2023-04-01T06:02:24.751Z,97655.78
2023-04-01T06:05:03.952Z,97650.72
2023-04-01T06:07:33.048Z,97657.78
2023-04-01T06:10:01.695Z,97658.03
2023-04-01T06:12:43.079Z,97657.00
2023-04-01T06:15:22.302Z,97665.41
2023-04-01T06:18:03.233Z,97671.47
2023-04-01T06:20:39.588Z,97667.41
2023-04-01T06:23:23.473Z,97670.44
2023-04-01T06:26:02.587Z,97673.44
2023-04-01T06:28:44.960Z,97677.88
2023-04-01T06:31:23.743Z,97676.38
2023-04-01T06:34:08.300Z,97675.53
2023-04-01T06:37:00.796Z,97683.25
2023-04-01T06:39:41.488Z,97673.09
2023-04-01T06:42:27.717Z,97685.72
2023-04-01T06:45:09.065Z,97676.59
2023-04-01T06:47:47.082Z,97692.72
2023-04-01T06:50:23.801Z,97687.19
2023-04-01T06:53:00.302Z,97692.03
2023-04-01T06:55:36.652Z,97683.53
2023-04-01T06:58:07.293Z,97690.16
2023-04-01T07:00:38.719Z,97691.00
2023-04-01T07:03:19.948Z,97692.44
2023-04-01T07:05:47.599Z,97693.16
2023-04-01T07:08:19.890Z,97691.41
2023-04-01T07:10:55.585Z,97695.25
2023-04-01T07:13:27.546Z,97702.72
2023-04-01T07:16:08.869Z,97701.78
2023-04-01T07:18:43.557Z,97702.06
2023-04-01T07:21:21.543Z,97701.88
2023-04-01T07:23:51.027Z,97712.53
2023-04-01T07:26:22.639Z,97708.91
2023-04-01T07:28:50.732Z,97707.19
2023-04-01T07:31:26.340Z,97713.97
2023-04-01T07:34:03.420Z,97712.66
2023-04-01T07:36:40.384Z,97717.34
2023-04-01T07:39:22.572Z,97710.41
2023-04-01T07:41:58.962Z,97714.94
2023-04-01T07:44:33.189Z,97726.91
2023-04-01T07:47:33.521Z,97735.19
2023-04-01T07:50:11.109Z,97734.28
2023-04-01T07:52:46.224Z,97732.97
2023-04-01T07:55:20.417Z,97734.16
2023-04-01T07:57:55.763Z,97738.75
2023-04-01T08:00:26.716Z,97735.63
2023-04-01T08:03:10.479Z,97733.84
2023-04-01T08:05:46.874Z,97744.59
2023-04-01T08:08:20.135Z,97747.50
2023-04-01T08:10:54.379Z,97741.88
2023-04-01T08:13:37.027Z,97743.75
2023-04-01T08:16:14.737Z,97758.91
2023-04-01T08:18:51.623Z,97752.72
2023-04-01T08:21:24.153Z,97754.09
2023-04-01T08:23:54.325Z,97750.72
2023-04-01T08:26:30.575Z,97756.50
2023-04-01T08:29:04.454Z,97755.19
2023-04-01T08:31:36.722Z,97760.19
2023-04-01T08:34:06.852Z,97770.84
2023-04-01T08:36:38.990Z,97768.53
2023-04-01T08:39:11.880Z,97771.38
2023-04-01T08:42:00.976Z,97779.56
2023-04-01T08:45:01.117Z,97776.81
2023-04-01T08:47:44.303Z,97778.38
2023-04-01T08:50:35.158Z,97788.97
2023-04-01T08:53:08.839Z,97782.13
2023-04-01T08:55:48.880Z,97792.91
2023-04-01T08:58:55.350Z,97797.22
2023-04-01T09:01:28.522Z,97797.38
2023-04-01T09:04:16.347Z,97806.03
2023-04-01T09:06:57.701Z,97806.19
2023-04-01T09:09:44.249Z,97806.72
2023-04-01T09:12:41.922Z,97809.31
2023-04-01T09:15:50.841Z,97809.66
2023-04-01T09:18:46.198Z,97814.44
2023-04-01T09:21:31.607Z,97819.19
2023-04-01T09:24:23.627Z,97812.63
2023-04-01T09:27:17.002Z,97822.84
2023-04-01T09:30:01.398Z,97834.84
2023-04-01T09:33:17.047Z,97828.97
2023-04-01T09:35:49.334Z,97836.81
2023-04-01T09:38:31.963Z,97836.94
2023-04-01T09:41:04.397Z,97836.00
2023-04-01T09:44:00.948Z,97849.41
2023-04-01T09:46:39.828Z,97844.09
2023-04-01T09:49:31.241Z,97847.84
2023-04-01T09:52:27.649Z,97845.94
2023-04-01T09:55:08.468Z,97844.41
2023-04-01T09:58:18.105Z,97850.06
2023-04-01T10:01:05.720Z,97870.75
2023-04-01T10:04:09.144Z,97866.47
2023-04-01T10:07:10.407Z,97861.91
2023-04-01T10:10:25.600Z,97864.31
2023-04-01T10:13:27.298Z,97866.94
2023-04-01T10:16:27.463Z,97873.78
2023-04-01T10:19:31.647Z,97883.28
2023-04-01T10:22:19.584Z,97879.94
2023-04-01T10:25:06.540Z,97872.53
2023-04-01T10:28:08.161Z,97881.19
2023-04-01T10:31:13.167Z,97885.00
2023-04-01T10:34:02.154Z,97883.19
2023-04-01T10:36:55.128Z,97885.94
2023-04-01T10:39:36.767Z,97881.59
2023-04-01T10:42:43.085Z,97884.50
2023-04-01T10:46:01.278Z,97887.19
2023-04-01T10:49:00.915Z,97887.13
2023-04-01T10:51:59.191Z,97888.53
2023-04-01T10:54:47.481Z,97890.22
2023-04-01T10:57:44.008Z,97893.41
2023-04-01T11:00:46.986Z,97891.31
2023-04-01T11:03:57.345Z,97892.66
2023-04-01T11:07:12.203Z,97893.53
2023-04-01T11:10:31.791Z,97899.19
2023-04-01T11:13:41.324Z,97913.44
2023-04-01T11:16:39.566Z,97909.56
2023-04-01T11:19:39.660Z,97908.56
2023-04-01T11:22:24.590Z,97915.28
2023-04-01T11:25:19.676Z,97913.50
2023-04-01T11:28:16.683Z,97916.91
2023-04-01T11:30:59.627Z,97916.75
2023-04-01T11:33:36.756Z,97917.25
2023-04-01T11:36:27.965Z,97922.16
2023-04-01T11:39:24.554Z,97925.44
2023-04-01T11:42:00.534Z,97930.16
2023-04-01T11:44:30.632Z,97933.16
2023-04-01T11:47:16.698Z,97937.16
2023-04-01T11:50:02.354Z,97947.31
2023-04-01T11:52:44.579Z,97946.38
2023-04-01T11:55:25.919Z,97957.28
2023-04-01T11:58:07.178Z,97958.31
2023-04-01T12:01:06.417Z,97958.72
2023-04-01T12:03:53.810Z,97972.63
2023-04-01T12:06:33.474Z,97974.59
2023-04-01T12:09:06.177Z,97973.09
2023-04-01T12:11:40.398Z,97976.25
2023-04-01T12:14:18.105Z,97978.66
2023-04-01T12:17:00.730Z,97976.34
2023-04-01T12:19:38.748Z,97979.63
2023-04-01T12:22:39.174Z,97984.03
2023-04-01T12:25:23.816Z,97985.25
2023-04-01T12:28:08.340Z,97986.19
2023-04-01T12:30:48.974Z,97994.66
2023-04-01T12:33:35.048Z,97996.81
2023-04-01T12:36:15.902Z,97997.59
2023-04-01T12:38:56.578Z,98001.94
2023-04-01T12:41:33.463Z,98004.19
2023-04-01T12:44:13.949Z,98007.84
2023-04-01T12:46:57.050Z,98006.31
2023-04-01T12:49:36.225Z,98005.97
2023-04-01T12:52:11.515Z,98014.59
2023-04-01T12:55:04.019Z,98020.41
2023-04-01T12:58:07.501Z,98020.00
2023-04-01T13:00:48.095Z,98023.75
2023-04-01T13:03:40.943Z,98029.19
2023-04-01T13:06:30.549Z,98033.41
2023-04-01T13:09:07.934Z,98039.91
2023-04-01T13:11:49.530Z,98045.72
2023-04-01T13:14:35.789Z,98044.25
2023-04-01T13:17:13.104Z,98052.03
2023-04-01T13:20:02.079Z,98049.25
2023-04-01T13:22:41.702Z,98050.59
2023-04-01T13:25:22.198Z,98053.50
2023-04-01T13:27:58.359Z,98057.84
2023-04-01T13:30:30.176Z,98054.78
2023-04-01T13:33:04.346Z,98057.97
2023-04-01T13:35:41.140Z,98061.97
2023-04-01T13:38:33.620Z,98063.66
2023-04-01T13:41:08.381Z,98064.28
2023-04-01T13:43:41.525Z,98063.53
2023-04-01T13:46:25.942Z,98075.56
2023-04-01T13:49:22.068Z,98077.38
2023-04-01T13:52:19.562Z,98067.31
2023-04-01T13:55:05.496Z,98073.38
2023-04-01T13:58:04.799Z,98077.75
2023-04-01T14:00:43.980Z,98084.28
2023-04-01T14:03:40.009Z,98082.34
2023-04-01T14:06:30.238Z,98088.41
2023-04-01T14:09:13.706Z,98096.63
2023-04-01T14:11:47.350Z,98093.88
2023-04-01T14:14:25.785Z,98098.69
2023-04-01T14:17:19.713Z,98095.91
2023-04-01T14:20:04.287Z,98099.56
2023-04-01T14:22:40.522Z,98108.03
2023-04-01T14:25:33.617Z,98115.09
2023-04-01T14:28:15.490Z,98112.31
2023-04-01T14:31:17.650Z,98110.84
2023-04-01T14:34:00.447Z,98121.84
2023-04-01T14:36:49.411Z,98118.72
2023-04-01T14:39:51.564Z,98129.50
2023-04-01T14:42:32.631Z,98123.44
2023-04-01T14:45:22.596Z,98123.78
2023-04-01T14:47:54.803Z,98131.44
2023-04-01T14:50:27.210Z,98137.03
2023-04-01T14:53:01.001Z,98135.66
2023-04-01T14:55:46.221Z,98133.13
2023-04-01T14:58:15.458Z,98139.44
2023-04-01T15:00:50.543Z,98138.34
2023-04-01T15:03:25.132Z,98142.72
2023-04-01T15:06:03.030Z,98140.56
2023-04-01T15:08:34.178Z,98148.75
2023-04-01T15:11:31.204Z,98153.50
2023-04-01T15:14:39.171Z,98157.13
2023-04-01T15:17:22.723Z,98158.34
2023-04-01T15:20:12.419Z,98167.78
2023-04-01T15:23:01.712Z,98171.19
2023-04-01T15:25:41.472Z,98170.09
2023-04-01T15:28:16.914Z,98182.34
2023-04-01T15:30:52.517Z,98178.63
2023-04-01T15:33:33.245Z,98181.78
2023-04-01T15:36:10.736Z,98188.53
2023-04-01T15:38:46.431Z,98179.97
2023-04-01T15:41:17.852Z,98192.69
2023-04-01T15:43:46.766Z,98200.81
2023-04-01T15:46:28.539Z,98200.22
2023-04-01T15:49:17.535Z,98197.13
2023-04-01T15:52:00.392Z,98205.72
2023-04-01T15:54:40.429Z,98202.31
2023-04-01T15:57:30.594Z,98211.56
2023-04-01T16:00:13.881Z,98215.19
2023-04-01T16:02:49.919Z,98218.59
2023-04-01T16:05:44.637Z,98220.81
2023-04-01T16:08:51.010Z,98219.97
2023-04-01T16:11:26.634Z,98228.09
2023-04-01T16:14:05.409Z,98230.97
2023-04-01T16:16:48.176Z,98226.63
2023-04-01T16:19:36.366Z,98228.91
2023-04-01T16:22:10.116Z,98237.94
2023-04-01T16:24:44.166Z,98232.84
2023-04-01T16:27:17.518Z,98241.75
2023-04-01T16:29:50.762Z,98244.91
2023-04-01T16:32:31.107Z,98247.72
2023-04-01T16:35:20.980Z,98249.75
2023-04-01T16:37:52.619Z,98247.66
2023-04-01T16:40:35.968Z,98252.78
2023-04-01T16:43:15.403Z,98261.25
2023-04-01T16:45:49.263Z,98261.50
2023-04-01T16:48:19.317Z,98267.28
2023-04-01T16:50:55.821Z,98259.94
2023-04-01T16:53:36.383Z,98271.72
2023-04-01T16:56:13.152Z,98267.97
2023-04-01T16:58:50.285Z,98278.00
2023-04-01T17:01:24.204Z,98284.75
2023-04-01T17:03:59.284Z,98282.69
2023-04-01T17:06:33.644Z,98288.34
2023-04-01T17:09:16.528Z,98284.16
2023-04-01T17:11:50.692Z,98289.38
2023-04-01T17:14:27.150Z,98290.69
2023-04-01T17:17:03.445Z,98294.69
2023-04-01T17:20:10.048Z,98297.50
2023-04-01T17:22:44.403Z,98308.91
2023-04-01T17:25:27.585Z,98307.25
2023-04-01T17:28:00.982Z,98313.81
2023-04-01T17:30:36.260Z,98316.03
2023-04-01T17:33:32.098Z,98323.31
2023-04-01T17:36:06.382Z,98326.81
2023-04-01T17:38:53.887Z,98330.25
2023-04-01T17:41:29.762Z,98333.69
2023-04-01T17:44:03.541Z,98333.56
2023-04-01T17:46:57.283Z,98336.50
2023-04-01T17:49:32.825Z,98339.97
2023-04-01T17:52:11.959Z,98341.22
2023-04-01T17:54:48.418Z,98345.69
2023-04-01T17:57:44.476Z,98347.78
2023-04-01T18:00:25.549Z,98357.66
2023-04-01T18:03:07.263Z,98368.16
2023-04-01T18:05:52.937Z,98371.47
2023-04-01T18:08:28.658Z,98372.13
2023-04-01T18:11:07.675Z,98384.31
2023-04-01T18:14:14.881Z,98384.31
2023-04-01T18:17:04.021Z,98389.47
2023-04-01T18:19:43.904Z,98397.00
2023-04-01T18:22:20.841Z,98390.22
2023-04-01T18:24:59.111Z,98398.50
2023-04-01T18:27:32.888Z,98411.09
2023-04-01T18:30:04.422Z,98405.75
2023-04-01T18:32:37.790Z,98411.19
2023-04-01T18:35:21.217Z,98418.94
2023-04-01T18:37:56.251Z,98412.97
2023-04-01T18:40:30.788Z,98426.38
2023-04-01T18:43:11.002Z,98429.34
2023-04-01T18:45:43.384Z,98437.28
2023-04-01T18:48:34.489Z,98437.78
2023-04-01T18:51:12.520Z,98440.66
2023-04-01T18:53:44.452Z,98442.16
2023-04-01T18:56:15.883Z,98449.50
2023-04-01T18:58:50.152Z,98446.88
2023-04-01T19:01:25.523Z,98450.41
2023-04-01T19:04:12.135Z,98458.31
2023-04-01T19:06:48.705Z,98465.47
2023-04-01T19:09:23.369Z,98466.47
2023-04-01T19:12:09.516Z,98466.44
2023-04-01T19:14:53.301Z,98475.22
2023-04-01T19:17:34.973Z,98473.00
2023-04-01T19:20:12.704Z,98481.81
2023-04-01T19:22:58.775Z,98476.56
2023-04-01T19:25:37.673Z,98482.00
2023-04-01T19:28:21.501Z,98493.81
2023-04-01T19:30:55.967Z,98492.88
2023-04-01T19:33:53.861Z,98492.44
2023-04-01T19:36:31.558Z,98496.94
2023-04-01T19:39:17.031Z,98503.84
2023-04-01T19:41:52.395Z,98496.41
2023-04-01T19:44:32.855Z,98494.53
2023-04-01T19:47:09.776Z,98501.19
2023-04-01T19:49:52.418Z,98500.13
2023-04-01T19:52:28.147Z,98500.22
2023-04-01T19:55:03.182Z,98515.03
2023-04-01T19:57:40.350Z,98519.44
2023-04-01T20:00:18.004Z,98529.56
2023-04-01T20:02:57.954Z,98531.09
2023-04-01T20:05:37.041Z,98536.63
2023-04-01T20:08:14.333Z,98551.97
2023-04-01T20:10:50.061Z,98558.78
2023-04-01T20:13:28.145Z,98562.75
2023-04-01T20:16:03.813Z,98571.78
2023-04-01T20:18:40.215Z,98576.56
2023-04-01T20:21:20.589Z,98580.09
2023-04-01T20:23:54.564Z,98575.41
2023-04-01T20:26:27.673Z,98585.63
2023-04-01T20:29:14.362Z,98594.34
2023-04-01T20:31:43.609Z,98597.63
2023-04-01T20:34:37.953Z,98599.59
2023-04-01T20:37:23.238Z,98596.56
2023-04-01T20:40:19.262Z,98605.19
2023-04-01T20:43:04.248Z,98606.16
2023-04-01T20:45:39.880Z,98611.91
2023-04-01T20:48:29.532Z,98612.97
2023-04-01T20:51:00.943Z,98617.25
2023-04-01T20:53:33.156Z,98622.47
2023-04-01T20:56:31.069Z,98619.38
2023-04-01T20:59:18.551Z,98629.72
2023-04-01T21:01:56.638Z,98633.13
2023-04-01T21:04:30.140Z,98638.34
2023-04-01T21:07:14.998Z,98643.91
2023-04-01T21:09:53.805Z,98647.94
2023-04-01T21:12:32.412Z,98658.16
2023-04-01T21:15:23.757Z,98653.72
2023-04-01T21:18:06.353Z,98661.38
2023-04-01T21:21:06.521Z,98673.31
2023-04-01T21:23:49.273Z,98677.06
2023-04-01T21:26:28.834Z,98682.09
2023-04-01T21:29:19.867Z,98693.25
2023-04-01T21:32:17.298Z,98696.50
2023-04-01T21:34:53.017Z,98702.97
2023-04-01T21:37:43.481Z,98708.56
2023-04-01T21:40:37.850Z,98717.91
2023-04-01T21:43:17.266Z,98725.25
2023-04-01T21:46:06.715Z,98725.13
2023-04-01T21:48:51.659Z,98743.31
2023-04-01T21:51:57.586Z,98748.03
2023-04-01T21:54:57.718Z,98765.97
2023-04-01T21:57:57.007Z,98771.00
2023-04-01T22:00:27.672Z,98771.63
2023-04-01T22:03:27.187Z,98775.97
2023-04-01T22:06:02.495Z,98786.69
2023-04-01T22:08:42.036Z,98797.91
2023-04-01T22:11:22.735Z,98804.09
2023-04-01T22:13:52.677Z,98809.88
2023-04-01T22:16:26.580Z,98803.13
2023-04-01T22:19:03.154Z,98805.81
2023-04-01T22:21:40.505Z,98829.06
2023-04-01T22:24:19.947Z,98828.22
2023-04-01T22:26:57.948Z,98823.03
2023-04-01T22:29:30.484Z,98839.09
2023-04-01T22:32:02.717Z,98848.41
2023-04-01T22:34:40.736Z,98851.38
2023-04-01T22:37:19.844Z,98849.50
2023-04-01T22:40:10.830Z,98864.41
2023-04-01T22:42:45.493Z,98870.50
2023-04-01T22:45:32.173Z,98883.50
2023-04-01T22:48:10.934Z,98884.38
2023-04-01T22:50:44.009Z,98886.19
2023-04-01T22:53:25.850Z,98890.47
2023-04-01T22:55:55.293Z,98893.91
2023-04-01T22:58:32.362Z,98899.09
2023-04-01T23:01:03.708Z,98904.91
2023-04-01T23:03:33.934Z,98902.59
2023-04-01T23:06:03.971Z,98909.50
2023-04-01T23:09:10.060Z,98914.94
2023-04-01T23:11:45.391Z,98922.56
2023-04-01T23:14:49.741Z,98940.72
2023-04-01T23:17:48.015Z,98933.31
2023-04-01T23:20:24.405Z,98938.53
2023-04-01T23:23:01.549Z,98944.19
2023-04-01T23:25:45.680Z,98951.28
2023-04-01T23:28:55.017Z,98965.75
2023-04-01T23:31:45.286Z,98971.41
2023-04-01T23:34:29.484Z,98970.09
2023-04-01T23:36:59.598Z,98975.53
2023-04-01T23:39:31.260Z,98985.75
2023-04-01T23:42:02.222Z,98997.66
2023-04-01T23:44:30.873Z,98994.88
2023-04-01T23:47:01.600Z,99000.41
2023-04-01T23:49:36.294Z,99013.72
2023-04-01T23:52:11.676Z,99018.00
2023-04-01T23:54:45.062Z,99021.66
2023-04-01T23:57:15.276Z,99024.53
2023-04-01T23:59:42.890Z,99028.34
